sensor_id;sensor_type;location;lat;lon;timestamp;pressure;altitude;pressure_sealevel;temperature;humidity
46768;BME280;69007;48.978;18.066;2024-03-29T00:00:39;96461.84;;;7.21;100.00
46768;BME280;69007;48.978;18.066;2024-03-29T00:03:05;96470.78;;;7.16;100.00
46768;BME280;69007;48.978;18.066;2024-03-29T00:05:30;96513.53;;;7.30;100.00
46768;BME280;69007;48.978;18.066;2024-03-29T00:07:56;96522.97;;;7.32;100.00
46768;BME280;69007;48.978;18.066;2024-03-29T00:10:21;96510.81;;;7.30;100.00
46768;BME280;69007;48.978;18.066;2024-03-29T00:12:47;96529.22;;;7.33;100.00
46768;BME280;69007;48.978;18.066;2024-03-29T00:15:12;96486.72;;;7.03;100.00
46768;BME280;69007;48.978;18.066;2024-03-29T00:17:37;96515.69;;;7.12;100.00
46768;BME280;69007;48.978;18.066;2024-03-29T00:20:04;96518.38;;;7.02;100.00
46768;BME280;69007;48.978;18.066;2024-03-29T00:22:31;96523.25;;;7.10;100.00
46768;BME280;69007;48.978;18.066;2024-03-29T00:24:56;96534.63;;;7.17;100.00
46768;BME280;69007;48.978;18.066;2024-03-29T00:27:21;96537.88;;;7.19;100.00
46768;BME280;69007;48.978;18.066;2024-03-29T00:29:50;96544.91;;;7.20;100.00
46768;BME280;69007;48.978;18.066;2024-03-29T00:32:18;96568.72;;;7.24;100.00
46768;BME280;69007;48.978;18.066;2024-03-29T00:34:44;96563.56;;;7.17;100.00
46768;BME280;69007;48.978;18.066;2024-03-29T00:37:10;96538.66;;;6.99;100.00
46768;BME280;69007;48.978;18.066;2024-03-29T00:39:36;96569.78;;;7.02;100.00
46768;BME280;69007;48.978;18.066;2024-03-29T00:42:01;96566.28;;;7.12;100.00
46768;BME280;69007;48.978;18.066;2024-03-29T00:44:27;96583.84;;;7.09;100.00
46768;BME280;69007;48.978;18.066;2024-03-29T00:46:52;96625.00;;;7.22;100.00
46768;BME280;69007;48.978;18.066;2024-03-29T00:49:18;96632.06;;;7.28;100.00
46768;BME280;69007;48.978;18.066;2024-03-29T00:51:43;96633.13;;;7.22;100.00
46768;BME280;69007;48.978;18.066;2024-03-29T00:54:08;96636.34;;;7.18;100.00
46768;BME280;69007;48.978;18.066;2024-03-29T00:56:34;96615.75;;;7.02;100.00
46768;BME280;69007;48.978;18.066;2024-03-29T00:58:59;96637.94;;;7.09;100.00
46768;BME280;69007;48.978;18.066;2024-03-29T01:01:24;96655.00;;;7.10;100.00
46768;BME280;69007;48.978;18.066;2024-03-29T01:03:49;96666.63;;;7.10;100.00
46768;BME280;69007;48.978;18.066;2024-03-29T01:06:15;96649.53;;;6.89;100.00
46768;BME280;69007;48.978;18.066;2024-03-29T01:08:40;96669.06;;;7.01;100.00
46768;BME280;69007;48.978;18.066;2024-03-29T01:11:06;96681.22;;;6.99;100.00
46768;BME280;69007;48.978;18.066;2024-03-29T01:13:31;96681.22;;;6.99;100.00
46768;BME280;69007;48.978;18.066;2024-03-29T01:15:56;96682.25;;;6.93;100.00
46768;BME280;69007;48.978;18.066;2024-03-29T01:18:22;96674.41;;;6.91;100.00
46768;BME280;69007;48.978;18.066;2024-03-29T01:20:47;96675.22;;;6.87;100.00
46768;BME280;69007;48.978;18.066;2024-03-29T01:23:12;96647.03;;;6.67;100.00
46768;BME280;69007;48.978;18.066;2024-03-29T01:25:38;96685.72;;;6.78;100.00
46768;BME280;69007;48.978;18.066;2024-03-29T01:28:03;96649.94;;;6.50;100.00
46768;BME280;69007;48.978;18.066;2024-03-29T01:30:29;96684.34;;;6.70;100.00
46768;BME280;69007;48.978;18.066;2024-03-29T01:32:55;96680.56;;;6.71;100.00
46768;BME280;69007;48.978;18.066;2024-03-29T01:35:20;96663.75;;;6.59;100.00
46768;BME280;69007;48.978;18.066;2024-03-29T01:37:46;96692.78;;;6.79;100.00
46768;BME280;69007;48.978;18.066;2024-03-29T01:40:11;96676.53;;;6.74;100.00
46768;BME280;69007;48.978;18.066;2024-03-29T01:42:37;96669.72;;;6.61;100.00
46768;BME280;69007;48.978;18.066;2024-03-29T01:45:02;96683.56;;;6.75;100.00
46768;BME280;69007;48.978;18.066;2024-03-29T01:47:28;96714.16;;;6.86;100.00
46768;BME280;69007;48.978;18.066;2024-03-29T01:49:53;96695.72;;;6.77;100.00
46768;BME280;69007;48.978;18.066;2024-03-29T01:52:19;96698.41;;;6.72;100.00
46768;BME280;69007;48.978;18.066;2024-03-29T01:54:46;96704.88;;;6.71;100.00
46768;BME280;69007;48.978;18.066;2024-03-29T01:57:12;96683.44;;;6.49;100.00
46768;BME280;69007;48.978;18.066;2024-03-29T01:59:40;96714.31;;;6.58;100.00
46768;BME280;69007;48.978;18.066;2024-03-29T02:02:05;96688.19;;;6.32;100.00
46768;BME280;69007;48.978;18.066;2024-03-29T02:04:31;96716.91;;;6.43;100.00
46768;BME280;69007;48.978;18.066;2024-03-29T02:06:57;96723.69;;;6.45;100.00
46768;BME280;69007;48.978;18.066;2024-03-29T02:09:22;96680.59;;;6.28;100.00
46768;BME280;69007;48.978;18.066;2024-03-29T02:11:47;96711.72;;;6.31;100.00
46768;BME280;69007;48.978;18.066;2024-03-29T02:14:13;96707.84;;;6.22;100.00
46768;BME280;69007;48.978;18.066;2024-03-29T02:16:38;96737.66;;;6.32;100.00
46768;BME280;69007;48.978;18.066;2024-03-29T02:19:04;96719.00;;;6.31;100.00
46768;BME280;69007;48.978;18.066;2024-03-29T02:21:30;96732.25;;;6.32;100.00
46768;BME280;69007;48.978;18.066;2024-03-29T02:24:09;96738.16;;;6.24;100.00
46768;BME280;69007;48.978;18.066;2024-03-29T02:26:34;96747.78;;;6.15;100.00
46768;BME280;69007;48.978;18.066;2024-03-29T02:29:07;96740.69;;;6.03;100.00
46768;BME280;69007;48.978;18.066;2024-03-29T02:31:32;96761.56;;;6.13;100.00
46768;BME280;69007;48.978;18.066;2024-03-29T02:33:58;96746.06;;;6.03;100.00
46768;BME280;69007;48.978;18.066;2024-03-29T02:36:23;96755.34;;;6.13;100.00
46768;BME280;69007;48.978;18.066;2024-03-29T02:38:48;96732.53;;;5.98;100.00
46768;BME280;69007;48.978;18.066;2024-03-29T02:41:14;96729.28;;;5.96;100.00
46768;BME280;69007;48.978;18.066;2024-03-29T02:43:39;96734.31;;;5.87;100.00
46768;BME280;69007;48.978;18.066;2024-03-29T02:46:04;96737.38;;;5.96;100.00
46768;BME280;69007;48.978;18.066;2024-03-29T02:48:30;96691.19;;;5.65;100.00
46768;BME280;69007;48.978;18.066;2024-03-29T02:50:55;96719.34;;;5.75;100.00
46768;BME280;69007;48.978;18.066;2024-03-29T02:53:20;96708.56;;;5.75;100.00
46768;BME280;69007;48.978;18.066;2024-03-29T02:55:46;96738.94;;;5.92;100.00
46768;BME280;69007;48.978;18.066;2024-03-29T02:58:11;96745.94;;;5.88;100.00
46768;BME280;69007;48.978;18.066;2024-03-29T03:00:36;96762.13;;;5.88;100.00
46768;BME280;69007;48.978;18.066;2024-03-29T03:03:02;96756.97;;;5.86;100.00
46768;BME280;69007;48.978;18.066;2024-03-29T03:05:29;96725.44;;;5.60;100.00
46768;BME280;69007;48.978;18.066;2024-03-29T03:07:54;96753.91;;;5.72;100.00
46768;BME280;69007;48.978;18.066;2024-03-29T03:10:47;96759.44;;;5.61;100.00
46768;BME280;69007;48.978;18.066;2024-03-29T03:13:24;96785.88;;;5.59;100.00
46768;BME280;69007;48.978;18.066;2024-03-29T03:15:49;96764.44;;;5.47;100.00
46768;BME280;69007;48.978;18.066;2024-03-29T03:18:15;96807.97;;;5.56;100.00
46768;BME280;69007;48.978;18.066;2024-03-29T03:20:40;96792.66;;;5.39;100.00
46768;BME280;69007;48.978;18.066;2024-03-29T03:23:06;96795.25;;;5.29;100.00
46768;BME280;69007;48.978;18.066;2024-03-29T03:25:31;96821.78;;;5.37;100.00
46768;BME280;69007;48.978;18.066;2024-03-29T03:27:56;96830.75;;;5.43;100.00
46768;BME280;69007;48.978;18.066;2024-03-29T03:30:22;96850.16;;;5.40;100.00
46768;BME280;69007;48.978;18.066;2024-03-29T03:32:47;96829.22;;;5.25;100.00
46768;BME280;69007;48.978;18.066;2024-03-29T03:35:13;96868.59;;;5.48;100.00
46768;BME280;69007;48.978;18.066;2024-03-29T03:37:38;96869.91;;;5.45;100.00
46768;BME280;69007;48.978;18.066;2024-03-29T03:40:05;96869.72;;;5.52;100.00
46768;BME280;69007;48.978;18.066;2024-03-29T03:42:31;96863.41;;;5.41;100.00
46768;BME280;69007;48.978;18.066;2024-03-29T03:44:57;96837.59;;;5.28;100.00
46768;BME280;69007;48.978;18.066;2024-03-29T03:47:22;96851.78;;;5.41;100.00
46768;BME280;69007;48.978;18.066;2024-03-29T03:49:47;96873.41;;;5.46;100.00
46768;BME280;69007;48.978;18.066;2024-03-29T03:52:13;96892.91;;;5.48;100.00
46768;BME280;69007;48.978;18.066;2024-03-29T03:54:38;96882.91;;;5.48;100.00
46768;BME280;69007;48.978;18.066;2024-03-29T03:57:04;96884.22;;;5.46;100.00
46768;BME280;69007;48.978;18.066;2024-03-29T03:59:30;96841.91;;;5.29;100.00
46768;BME280;69007;48.978;18.066;2024-03-29T04:01:55;96845.22;;;5.31;100.00
46768;BME280;69007;48.978;18.066;2024-03-29T04:04:21;96864.66;;;5.33;100.00
46768;BME280;69007;48.978;18.066;2024-03-29T04:06:46;96897.22;;;5.49;100.00
46768;BME280;69007;48.978;18.066;2024-03-29T04:09:14;96900.47;;;5.51;100.00
46768;BME280;69007;48.978;18.066;2024-03-29T04:11:41;96877.38;;;5.38;100.00
46768;BME280;69007;48.978;18.066;2024-03-29T04:14:07;96866.44;;;5.28;100.00
46768;BME280;69007;48.978;18.066;2024-03-29T04:16:32;96868.91;;;5.29;100.00
46768;BME280;69007;48.978;18.066;2024-03-29T04:18:57;96893.88;;;5.42;100.00
46768;BME280;69007;48.978;18.066;2024-03-29T04:21:23;96868.97;;;5.34;100.00
46768;BME280;69007;48.978;18.066;2024-03-29T04:23:48;96842.88;;;5.18;100.00
46768;BME280;69007;48.978;18.066;2024-03-29T04:26:14;96876.50;;;5.32;100.00
46768;BME280;69007;48.978;18.066;2024-03-29T04:28:39;96884.41;;;5.39;100.00
46768;BME280;69007;48.978;18.066;2024-03-29T04:31:04;96884.16;;;5.41;100.00
46768;BME280;69007;48.978;18.066;2024-03-29T04:33:30;96896.66;;;5.47;100.00
46768;BME280;69007;48.978;18.066;2024-03-29T04:36:00;96894.75;;;5.47;100.00
46768;BME280;69007;48.978;18.066;2024-03-29T04:38:26;96890.69;;;5.45;100.00
46768;BME280;69007;48.978;18.066;2024-03-29T04:40:53;96906.13;;;5.49;100.00
46768;BME280;69007;48.978;18.066;2024-03-29T04:43:21;96922.19;;;6.05;100.00
46768;BME280;69007;48.978;18.066;2024-03-29T04:45:47;96917.47;;;6.77;100.00
46768;BME280;69007;48.978;18.066;2024-03-29T04:48:12;96889.19;;;7.38;97.30
46768;BME280;69007;48.978;18.066;2024-03-29T04:50:38;96918.75;;;8.28;93.02
46768;BME280;69007;48.978;18.066;2024-03-29T04:53:04;96912.84;;;9.09;89.12
46768;BME280;69007;48.978;18.066;2024-03-29T04:55:29;96902.59;;;9.81;85.68
46768;BME280;69007;48.978;18.066;2024-03-29T04:57:55;96908.91;;;10.26;83.92
46768;BME280;69007;48.978;18.066;2024-03-29T05:00:20;96903.94;;;10.78;81.30
46768;BME280;69007;48.978;18.066;2024-03-29T05:02:45;96908.50;;;11.17;80.48
46768;BME280;69007;48.978;18.066;2024-03-29T05:05:11;96880.13;;;11.48;79.01
46768;BME280;69007;48.978;18.066;2024-03-29T05:07:36;96892.56;;;12.26;74.69
46768;BME280;69007;48.978;18.066;2024-03-29T05:10:02;96902.03;;;12.86;74.05
46768;BME280;69007;48.978;18.066;2024-03-29T05:12:32;96880.38;;;13.22;72.11
46768;BME280;69007;48.978;18.066;2024-03-29T05:14:57;96875.66;;;13.56;70.24
46768;BME280;69007;48.978;18.066;2024-03-29T05:17:22;96933.19;;;14.34;68.29
46768;BME280;69007;48.978;18.066;2024-03-29T05:19:50;96923.53;;;14.36;67.63
46768;BME280;69007;48.978;18.066;2024-03-29T05:22:16;96945.75;;;14.85;65.98
46768;BME280;69007;48.978;18.066;2024-03-29T05:24:41;96944.84;;;15.44;65.39
46768;BME280;69007;48.978;18.066;2024-03-29T05:27:07;96902.00;;;15.88;63.04
46768;BME280;69007;48.978;18.066;2024-03-29T05:29:32;96908.81;;;15.99;61.57
46768;BME280;69007;48.978;18.066;2024-03-29T05:31:58;96923.50;;;15.63;63.22
46768;BME280;69007;48.978;18.066;2024-03-29T05:34:23;96942.06;;;15.66;63.11
46768;BME280;69007;48.978;18.066;2024-03-29T05:36:48;96941.19;;;15.89;61.68
46768;BME280;69007;48.978;18.066;2024-03-29T05:39:14;96905.13;;;16.04;60.01
46768;BME280;69007;48.978;18.066;2024-03-29T05:41:40;96931.63;;;17.66;56.72
46768;BME280;69007;48.978;18.066;2024-03-29T05:44:06;96941.66;;;19.11;51.54
46768;BME280;69007;48.978;18.066;2024-03-29T05:46:31;96946.75;;;20.50;48.72
46768;BME280;69007;48.978;18.066;2024-03-29T05:48:56;96950.16;;;21.24;47.94
46768;BME280;69007;48.978;18.066;2024-03-29T05:51:22;96934.63;;;22.59;45.25
46768;BME280;69007;48.978;18.066;2024-03-29T05:53:47;96962.38;;;23.73;42.78
46768;BME280;69007;48.978;18.066;2024-03-29T05:56:13;96963.31;;;23.03;42.58
46768;BME280;69007;48.978;18.066;2024-03-29T05:58:38;96967.63;;;22.64;43.03
46768;BME280;69007;48.978;18.066;2024-03-29T06:01:03;96956.97;;;21.43;42.97
46768;BME280;69007;48.978;18.066;2024-03-29T06:03:29;96973.91;;;22.14;42.67
46768;BME280;69007;48.978;18.066;2024-03-29T06:05:55;96963.69;;;22.66;40.41
46768;BME280;69007;48.978;18.066;2024-03-29T06:08:20;96983.72;;;21.95;42.44
46768;BME280;69007;48.978;18.066;2024-03-29T06:10:46;96977.72;;;22.09;41.81
46768;BME280;69007;48.978;18.066;2024-03-29T06:13:12;96994.16;;;22.81;41.15
46768;BME280;69007;48.978;18.066;2024-03-29T06:15:54;96980.75;;;23.39;38.72
46768;BME280;69007;48.978;18.066;2024-03-29T06:18:39;96983.44;;;23.97;37.39
46768;BME280;69007;48.978;18.066;2024-03-29T06:21:04;96994.03;;;23.88;38.98
46768;BME280;69007;48.978;18.066;2024-03-29T06:23:30;96988.09;;;24.36;37.85
46768;BME280;69007;48.978;18.066;2024-03-29T06:25:55;96978.34;;;23.80;38.44
46768;BME280;69007;48.978;18.066;2024-03-29T06:28:21;96979.72;;;24.55;37.74
46768;BME280;69007;48.978;18.066;2024-03-29T06:30:46;96995.63;;;26.58;35.51
46768;BME280;69007;48.978;18.066;2024-03-29T06:33:11;97000.72;;;26.49;34.33
46768;BME280;69007;48.978;18.066;2024-03-29T06:35:37;97003.13;;;26.06;35.01
46768;BME280;69007;48.978;18.066;2024-03-29T06:38:02;96994.63;;;26.36;35.03
46768;BME280;69007;48.978;18.066;2024-03-29T06:40:28;97006.41;;;28.39;32.97
46768;BME280;69007;48.978;18.066;2024-03-29T06:42:53;97004.03;;;28.41;32.24
46768;BME280;69007;48.978;18.066;2024-03-29T06:45:21;96993.06;;;29.51;30.34
46768;BME280;69007;48.978;18.066;2024-03-29T06:47:46;96980.03;;;28.83;30.77
46768;BME280;69007;48.978;18.066;2024-03-29T06:50:12;96987.22;;;28.12;31.10
46768;BME280;69007;48.978;18.066;2024-03-29T06:52:37;97000.47;;;28.59;30.70
46768;BME280;69007;48.978;18.066;2024-03-29T06:55:03;97016.44;;;28.37;30.65
46768;BME280;69007;48.978;18.066;2024-03-29T06:57:28;96986.84;;;28.86;30.91
46768;BME280;69007;48.978;18.066;2024-03-29T06:59:56;96991.38;;;29.79;29.63
46768;BME280;69007;48.978;18.066;2024-03-29T07:02:22;97000.66;;;30.32;28.83
46768;BME280;69007;48.978;18.066;2024-03-29T07:04:47;96997.63;;;30.64;28.18
46768;BME280;69007;48.978;18.066;2024-03-29T07:07:12;96986.31;;;31.17;27.43
46768;BME280;69007;48.978;18.066;2024-03-29T07:09:38;97011.69;;;31.44;27.27
46768;BME280;69007;48.978;18.066;2024-03-29T07:12:03;97015.94;;;31.25;27.28
46768;BME280;69007;48.978;18.066;2024-03-29T07:14:29;96989.75;;;31.66;27.15
46768;BME280;69007;48.978;18.066;2024-03-29T07:16:56;96981.34;;;31.28;27.05
46768;BME280;69007;48.978;18.066;2024-03-29T07:19:22;96990.47;;;31.01;27.24
46768;BME280;69007;48.978;18.066;2024-03-29T07:21:48;96995.28;;;30.59;27.83
46768;BME280;69007;48.978;18.066;2024-03-29T07:24:13;96998.72;;;30.78;28.13
46768;BME280;69007;48.978;18.066;2024-03-29T07:26:39;96994.28;;;31.22;26.66
46768;BME280;69007;48.978;18.066;2024-03-29T07:29:05;97010.44;;;30.13;27.97
46768;BME280;69007;48.978;18.066;2024-03-29T07:31:34;96996.56;;;27.39;31.18
46768;BME280;69007;48.978;18.066;2024-03-29T07:34:00;97010.03;;;24.41;33.93
46768;BME280;69007;48.978;18.066;2024-03-29T07:36:25;97010.00;;;22.01;37.68
46768;BME280;69007;48.978;18.066;2024-03-29T07:38:54;96999.25;;;20.50;40.29
46768;BME280;69007;48.978;18.066;2024-03-29T07:41:19;97011.63;;;18.47;43.05
46768;BME280;69007;48.978;18.066;2024-03-29T07:43:55;97009.94;;;17.60;44.45
46768;BME280;69007;48.978;18.066;2024-03-29T07:46:31;97002.72;;;17.11;47.00
46768;BME280;69007;48.978;18.066;2024-03-29T07:48:57;96996.63;;;15.99;48.14
46768;BME280;69007;48.978;18.066;2024-03-29T07:51:22;97000.91;;;15.60;50.61
46768;BME280;69007;48.978;18.066;2024-03-29T07:53:47;97008.63;;;15.58;51.11
46768;BME280;69007;48.978;18.066;2024-03-29T07:56:13;97013.59;;;14.88;52.64
46768;BME280;69007;48.978;18.066;2024-03-29T07:58:38;97023.97;;;13.94;56.77
46768;BME280;69007;48.978;18.066;2024-03-29T08:01:04;97000.78;;;13.45;57.02
46768;BME280;69007;48.978;18.066;2024-03-29T08:03:29;96989.75;;;12.98;59.02
46768;BME280;69007;48.978;18.066;2024-03-29T08:06:01;96932.22;;;12.57;60.11
46768;BME280;69007;48.978;18.066;2024-03-29T08:08:31;96996.16;;;13.07;60.78
46768;BME280;69007;48.978;18.066;2024-03-29T08:10:57;96993.06;;;13.33;59.95
46768;BME280;69007;48.978;18.066;2024-03-29T08:13:23;97010.13;;;13.06;60.64
46768;BME280;69007;48.978;18.066;2024-03-29T08:16:01;96992.63;;;12.88;63.93
46768;BME280;69007;48.978;18.066;2024-03-29T08:18:28;97011.06;;;12.58;61.12
46768;BME280;69007;48.978;18.066;2024-03-29T08:20:53;97004.09;;;12.28;61.25
46768;BME280;69007;48.978;18.066;2024-03-29T08:23:20;97006.94;;;12.80;59.47
46768;BME280;69007;48.978;18.066;2024-03-29T08:25:46;96974.09;;;13.04;58.61
46768;BME280;69007;48.978;18.066;2024-03-29T08:28:11;97005.69;;;13.10;59.85
46768;BME280;69007;48.978;18.066;2024-03-29T08:30:37;97002.38;;;12.94;58.62
46768;BME280;69007;48.978;18.066;2024-03-29T08:33:02;97007.19;;;12.64;60.96
46768;BME280;69007;48.978;18.066;2024-03-29T08:35:34;96996.28;;;12.21;62.46
46768;BME280;69007;48.978;18.066;2024-03-29T08:38:00;96976.03;;;11.74;62.89
46768;BME280;69007;48.978;18.066;2024-03-29T08:40:28;97000.31;;;12.24;61.87
46768;BME280;69007;48.978;18.066;2024-03-29T08:42:55;96979.38;;;12.19;60.06
46768;BME280;69007;48.978;18.066;2024-03-29T08:45:21;96942.88;;;11.91;62.59
46768;BME280;69007;48.978;18.066;2024-03-29T08:47:46;96950.94;;;11.77;61.42
46768;BME280;69007;48.978;18.066;2024-03-29T08:50:12;96936.72;;;12.04;60.42
46768;BME280;69007;48.978;18.066;2024-03-29T08:52:39;96961.09;;;12.20;64.29
46768;BME280;69007;48.978;18.066;2024-03-29T08:55:08;96976.84;;;12.04;61.52
46768;BME280;69007;48.978;18.066;2024-03-29T08:57:34;96933.72;;;12.06;62.31
46768;BME280;69007;48.978;18.066;2024-03-29T08:59:59;96943.25;;;12.27;60.83
46768;BME280;69007;48.978;18.066;2024-03-29T09:02:25;96981.75;;;12.26;62.62
46768;BME280;69007;48.978;18.066;2024-03-29T09:04:50;96981.84;;;12.40;64.52
46768;BME280;69007;48.978;18.066;2024-03-29T09:07:15;96958.50;;;12.09;63.95
46768;BME280;69007;48.978;18.066;2024-03-29T09:09:41;96936.50;;;12.25;63.70
46768;BME280;69007;48.978;18.066;2024-03-29T09:12:10;96954.94;;;12.52;60.86
46768;BME280;69007;48.978;18.066;2024-03-29T09:14:35;96960.63;;;12.75;60.79
46768;BME280;69007;48.978;18.066;2024-03-29T09:17:01;96966.88;;;12.94;60.08
46768;BME280;69007;48.978;18.066;2024-03-29T09:19:27;96970.41;;;12.95;59.47
46768;BME280;69007;48.978;18.066;2024-03-29T09:21:53;96929.44;;;12.95;58.15
46768;BME280;69007;48.978;18.066;2024-03-29T09:24:18;96986.28;;;13.12;58.32
46768;BME280;69007;48.978;18.066;2024-03-29T09:26:45;96975.00;;;12.99;58.24
46768;BME280;69007;48.978;18.066;2024-03-29T09:29:13;96942.13;;;13.04;58.07
46768;BME280;69007;48.978;18.066;2024-03-29T09:31:39;96975.28;;;13.17;57.52
46768;BME280;69007;48.978;18.066;2024-03-29T09:34:04;96942.81;;;13.29;58.15
46768;BME280;69007;48.978;18.066;2024-03-29T09:36:29;96981.06;;;13.29;59.75
46768;BME280;69007;48.978;18.066;2024-03-29T09:38:55;96958.03;;;13.35;56.31
46768;BME280;69007;48.978;18.066;2024-03-29T09:41:21;96973.94;;;13.14;58.50
46768;BME280;69007;48.978;18.066;2024-03-29T09:43:47;96940.19;;;13.24;57.90
46768;BME280;69007;48.978;18.066;2024-03-29T09:46:14;96956.56;;;13.24;58.60
46768;BME280;69007;48.978;18.066;2024-03-29T09:48:40;96955.78;;;13.56;57.25
46768;BME280;69007;48.978;18.066;2024-03-29T09:51:07;96921.72;;;13.49;57.01
46768;BME280;69007;48.978;18.066;2024-03-29T09:53:37;96946.78;;;13.70;56.90
46768;BME280;69007;48.978;18.066;2024-03-29T09:56:03;96964.59;;;13.95;56.63
46768;BME280;69007;48.978;18.066;2024-03-29T09:58:30;96954.44;;;13.54;55.82
46768;BME280;69007;48.978;18.066;2024-03-29T10:00:55;96927.09;;;13.54;55.88
46768;BME280;69007;48.978;18.066;2024-03-29T10:03:24;96923.75;;;13.43;56.60
46768;BME280;69007;48.978;18.066;2024-03-29T10:05:55;96926.81;;;13.22;57.71
46768;BME280;69007;48.978;18.066;2024-03-29T10:08:21;96927.69;;;13.04;56.74
46768;BME280;69007;48.978;18.066;2024-03-29T10:10:48;96934.22;;;13.03;56.35
46768;BME280;69007;48.978;18.066;2024-03-29T10:13:14;96911.97;;;12.77;56.29
46768;BME280;69007;48.978;18.066;2024-03-29T10:15:39;96913.75;;;12.86;56.71
46768;BME280;69007;48.978;18.066;2024-03-29T10:18:09;96930.31;;;13.09;55.25
46768;BME280;69007;48.978;18.066;2024-03-29T10:20:34;96905.16;;;13.26;55.05
46768;BME280;69007;48.978;18.066;2024-03-29T10:23:01;96941.81;;;13.58;51.96
46768;BME280;69007;48.978;18.066;2024-03-29T10:25:32;96931.97;;;13.43;53.54
46768;BME280;69007;48.978;18.066;2024-03-29T10:27:58;96920.19;;;13.42;52.69
46768;BME280;69007;48.978;18.066;2024-03-29T10:30:25;96931.44;;;13.41;53.59
46768;BME280;69007;48.978;18.066;2024-03-29T10:32:50;96933.63;;;13.25;54.78
46768;BME280;69007;48.978;18.066;2024-03-29T10:35:16;96930.25;;;13.28;54.52
46768;BME280;69007;48.978;18.066;2024-03-29T10:37:42;96918.16;;;13.34;52.85
46768;BME280;69007;48.978;18.066;2024-03-29T10:40:09;96898.41;;;13.23;53.14
46768;BME280;69007;48.978;18.066;2024-03-29T10:42:38;96907.38;;;13.24;53.42
46768;BME280;69007;48.978;18.066;2024-03-29T10:45:05;96900.41;;;13.64;52.73
46768;BME280;69007;48.978;18.066;2024-03-29T10:47:32;96929.75;;;13.59;54.03
46768;BME280;69007;48.978;18.066;2024-03-29T10:49:58;96925.91;;;13.60;52.24
46768;BME280;69007;48.978;18.066;2024-03-29T10:52:25;96913.44;;;13.54;53.32
46768;BME280;69007;48.978;18.066;2024-03-29T10:54:51;96920.03;;;13.67;52.55
46768;BME280;69007;48.978;18.066;2024-03-29T10:57:27;96909.00;;;13.58;53.45
46768;BME280;69007;48.978;18.066;2024-03-29T11:05:12;96904.78;;;14.30;54.27
46768;BME280;69007;48.978;18.066;2024-03-29T11:07:41;96872.19;;;14.19;54.22
46768;BME280;69007;48.978;18.066;2024-03-29T11:10:25;96925.41;;;14.50;53.26
46768;BME280;69007;48.978;18.066;2024-03-29T11:13:27;96911.22;;;14.48;53.81
46768;BME280;69007;48.978;18.066;2024-03-29T11:15:57;96914.13;;;14.15;56.36
46768;BME280;69007;48.978;18.066;2024-03-29T11:18:25;96900.09;;;14.44;57.13
46768;BME280;69007;48.978;18.066;2024-03-29T11:20:52;96901.91;;;14.49;56.66
46768;BME280;69007;48.978;18.066;2024-03-29T11:23:20;96874.13;;;14.42;57.32
46768;BME280;69007;48.978;18.066;2024-03-29T11:25:51;96864.03;;;14.42;57.90
46768;BME280;69007;48.978;18.066;2024-03-29T11:28:25;96859.28;;;14.34;58.50
46768;BME280;69007;48.978;18.066;2024-03-29T11:30:52;96861.72;;;14.22;58.63
46768;BME280;69007;48.978;18.066;2024-03-29T11:36:23;96869.81;;;14.41;60.03
46768;BME280;69007;48.978;18.066;2024-03-29T11:38:54;96870.78;;;14.45;60.51
46768;BME280;69007;48.978;18.066;2024-03-29T11:41:21;96850.66;;;14.63;60.82
46768;BME280;69007;48.978;18.066;2024-03-29T11:43:49;96843.91;;;14.61;60.68
46768;BME280;69007;48.978;18.066;2024-03-29T11:46:15;96854.09;;;14.69;60.51
46768;BME280;69007;48.978;18.066;2024-03-29T11:48:44;96866.31;;;14.85;59.83
46768;BME280;69007;48.978;18.066;2024-03-29T11:51:16;96863.19;;;14.78;61.09
46768;BME280;69007;48.978;18.066;2024-03-29T11:53:43;96852.97;;;14.70;61.50
46768;BME280;69007;48.978;18.066;2024-03-29T11:56:09;96824.28;;;14.90;60.05
46768;BME280;69007;48.978;18.066;2024-03-29T11:58:37;96848.53;;;15.05;59.45
46768;BME280;69007;48.978;18.066;2024-03-29T12:01:04;96847.28;;;15.11;60.24
46768;BME280;69007;48.978;18.066;2024-03-29T12:03:31;96851.25;;;14.97;61.14
46768;BME280;69007;48.978;18.066;2024-03-29T12:05:58;96846.66;;;14.83;60.86
46768;BME280;69007;48.978;18.066;2024-03-29T12:08:24;96803.81;;;14.65;60.76
46768;BME280;69007;48.978;18.066;2024-03-29T12:10:51;96829.69;;;14.81;60.50
46768;BME280;69007;48.978;18.066;2024-03-29T12:13:17;96820.44;;;14.68;61.00
46768;BME280;69007;48.978;18.066;2024-03-29T12:15:44;96833.69;;;14.75;61.99
46768;BME280;69007;48.978;18.066;2024-03-29T12:18:10;96847.50;;;14.70;62.53
46768;BME280;69007;48.978;18.066;2024-03-29T12:20:36;96800.16;;;14.69;62.34
46768;BME280;69007;48.978;18.066;2024-03-29T12:23:04;96816.88;;;14.68;62.96
46768;BME280;69007;48.978;18.066;2024-03-29T12:25:30;96811.34;;;14.82;64.46
46768;BME280;69007;48.978;18.066;2024-03-29T12:27:58;96831.78;;;15.07;63.45
46768;BME280;69007;48.978;18.066;2024-03-29T12:30:24;96838.97;;;15.25;65.04
46768;BME280;69007;48.978;18.066;2024-03-29T12:33:05;96833.06;;;15.41;61.96
46768;BME280;69007;48.978;18.066;2024-03-29T12:35:41;96795.97;;;15.35;63.74
46768;BME280;69007;48.978;18.066;2024-03-29T12:38:08;96833.03;;;15.32;64.00
46768;BME280;69007;48.978;18.066;2024-03-29T12:40:34;96807.75;;;15.04;64.36
46768;BME280;69007;48.978;18.066;2024-03-29T12:43:07;96815.31;;;15.29;64.34
46768;BME280;69007;48.978;18.066;2024-03-29T12:45:39;96830.59;;;15.30;64.70
46768;BME280;69007;48.978;18.066;2024-03-29T12:48:12;96825.34;;;15.43;64.42
46768;BME280;69007;48.978;18.066;2024-03-29T12:50:43;96855.44;;;15.03;66.44
46768;BME280;69007;48.978;18.066;2024-03-29T12:53:11;96813.78;;;15.15;65.94
46768;BME280;69007;48.978;18.066;2024-03-29T12:55:37;96796.50;;;14.83;68.09